Time;durP1;ratioP1;P1;durP2;ratioP2;P2;SDS_P1;SDS_P2;PMS_P1;PMS_P2;Temp;Humidity;BMP_temperature;BMP_pressure;BME280_temperature;BME280_humidity;BME280_pressure;Samples;Min_cycle;Max_cycle;Signal;HPM_P1;HPM_P2
2023/09/14 00:03:19;;;;;;;0.93;0.40;;;;;;;;;;20714767;28;20757;-66
2023/09/14 00:13:20;;;;;;;1.10;0.47;;;;;;;;;;20825786;22;20227;-75
2023/09/14 00:23:22;;;;;;;1.35;0.40;;;;;;;;;;20852329;28;20270;-75
2023/09/14 00:33:24;;;;;;;0.90;0.40;;;;;;;;;;20856725;28;20219;-74
2023/09/14 00:43:25;;;;;;;1.13;0.40;;;;;;;;;;20856702;28;20245;-75
2023/09/14 00:53:27;;;;;;;0.77;0.40;;;;;;;;;;20826561;28;20274;-75
2023/09/14 01:03:28;;;;;;;0.43;0.30;;;;;;;;;;20830129;28;20784;-75
2023/09/14 01:13:44;;;;;;;0.73;0.33;;;20.50;99.90;;;;;;20855871;28;20292;-75
2023/09/14 01:24:07;;;;;;;0.40;0.30;;;20.50;99.90;;;;;;20830142;28;20233;-75
2023/09/14 01:34:09;;;;;;;0.80;0.73;;;;;;;;;;20856035;28;20277;-75
2023/09/14 01:44:12;;;;;;;0.90;0.40;;;;;;;;;;20807461;28;20269;-75
2023/09/14 01:54:13;;;;;;;0.53;0.30;;;;;;;;;;20805122;28;20282;-75
2023/09/14 02:04:15;;;;;;;0.87;0.50;;;;;;;;;;20855975;28;20290;-75
2023/09/14 02:14:16;;;;;;;1.00;0.50;;;;;;;;;;20858364;28;20310;-75
2023/09/14 02:24:18;;;;;;;0.67;0.47;;;;;;;;;;20839134;28;20219;-75
2023/09/14 02:34:19;;;;;;;0.73;0.40;;;;;;;;;;20832171;28;20230;-75
2023/09/14 02:44:21;;;;;;;0.90;0.37;;;;;;;;;;20804563;28;20240;-75
2023/09/14 02:54:23;;;;;;;0.70;0.33;;;;;;;;;;20814411;28;20252;-75
2023/09/14 03:04:25;;;;;;;0.67;0.40;;;;;;;;;;20847723;28;20223;-75
2023/09/14 03:14:27;;;;;;;1.10;0.43;;;;;;;;;;20861669;28;20232;-74
2023/09/14 03:24:28;;;;;;;1.20;0.47;;;;;;;;;;20811598;28;20653;-74
2023/09/14 03:34:30;;;;;;;1.17;0.60;;;;;;;;;;20832627;28;20239;-75
2023/09/14 03:44:32;;;;;;;1.93;0.67;;;;;;;;;;20821563;28;20285;-75
2023/09/14 03:54:33;;;;;;;0.73;0.43;;;;;;;;;;20855801;28;20289;-75
2023/09/14 04:04:35;;;;;;;2.17;0.70;;;;;;;;;;20843011;28;20251;-75
2023/09/14 04:14:36;;;;;;;2.50;0.67;;;;;;;;;;20877199;28;20232;-75
2023/09/14 04:24:39;;;;;;;0.83;0.50;;;;;;;;;;20886233;28;20231;-75
2023/09/14 04:34:41;;;;;;;1.83;0.60;;;;;;;;;;20855834;28;20224;-75
2023/09/14 04:44:43;;;;;;;1.73;0.60;;;;;;;;;;20854751;28;20221;-75
2023/09/14 04:54:44;;;;;;;1.07;0.40;;;;;;;;;;20853688;28;20260;-75
2023/09/14 05:04:46;;;;;;;1.07;0.63;;;;;;;;;;20868427;28;20370;-75
2023/09/14 05:14:48;;;;;;;2.10;0.70;;;;;;;;;;20872782;28;20227;-74
2023/09/14 05:24:50;;;;;;;1.37;0.70;;;;;;;;;;20840512;28;20296;-74
2023/09/14 05:34:51;;;;;;;1.90;0.60;;;;;;;;;;20845689;28;20229;-75
2023/09/14 05:44:54;;;;;;;1.77;0.80;;;;;;;;;;20822700;28;20220;-74
2023/09/14 05:54:55;;;;;;;1.40;0.70;;;;;;;;;;20822922;28;20301;-75
2023/09/14 06:04:57;;;;;;;2.83;0.57;;;;;;;;;;20849259;28;20709;-74
2023/09/14 06:14:59;;;;;;;1.07;0.70;;;;;;;;;;20944547;22;20288;-68
2023/09/14 06:25:01;;;;;;;1.03;0.70;;;;;;;;;;20822807;28;20245;-68
2023/09/14 06:35:03;;;;;;;1.50;0.70;;;;;;;;;;20846331;28;20264;-68
2023/09/14 06:45:06;;;;;;;2.23;0.70;;;;;;;;;;20883731;28;20219;-68
2023/09/14 06:55:09;;;;;;;1.47;0.70;;;;;;;;;;20889520;28;20270;-68
2023/09/14 07:05:11;;;;;;;0.90;0.63;;;;;;;;;;20851388;28;20276;-68
2023/09/14 07:15:13;;;;;;;2.10;0.80;;;;;;;;;;20889617;28;20218;-68
2023/09/14 07:25:14;;;;;;;2.07;0.80;;;;;;;;;;20951787;28;20295;-68
2023/09/14 07:35:17;;;;;;;2.20;0.87;;;;;;;;;;20944724;28;20234;-68
2023/09/14 07:45:19;;;;;;;1.60;0.77;;;;;;;;;;20955989;28;20253;-68
2023/09/14 07:55:21;;;;;;;1.70;0.80;;;;;;;;;;20983801;28;20228;-68
2023/09/14 08:05:23;;;;;;;0.97;0.60;;;;;;;;;;20921194;28;20289;-68
2023/09/14 08:15:25;;;;;;;2.17;0.90;;;;;;;;;;20963045;28;20273;-68
2023/09/14 08:25:27;;;;;;;1.40;0.67;;;;;;;;;;20934561;28;20269;-68
2023/09/14 08:35:31;;;;;;;3.37;1.00;;;;;;;;;;20914151;28;20644;-68
2023/09/14 08:45:33;;;;;;;1.53;0.70;;;20.80;99.90;;;;;;20897296;28;20228;-68
2023/09/14 08:55:35;;;;;;;2.10;0.90;;;21.00;99.90;;;;;;21000924;28;20403;-68
2023/09/14 09:05:37;;;;;;;0.90;0.60;;;;;;;;;;20969169;28;20221;-68
2023/09/14 09:15:39;;;;;;;2.17;0.70;;;;;;;;;;20982732;28;20254;-68
2023/09/14 09:25:43;;;;;;;1.13;0.70;;;21.60;99.90;;;;;;20987711;28;20277;-69
2023/09/14 09:35:46;;;;;;;1.37;0.80;;;;;;;;;;20968103;28;20298;-68
2023/09/14 09:45:49;;;;;;;1.23;0.70;;;;;;;;;;20892050;28;20570;-69
2023/09/14 09:55:52;;;;;;;4.57;1.03;;;;;;;;;;20906783;28;20239;-68
2023/09/14 10:05:53;;;;;;;0.87;0.50;;;;;;;;;;20959522;28;20228;-68
2023/09/14 10:15:56;;;;;;;1.23;0.70;;;22.30;99.90;;;;;;20983435;28;20224;-68
2023/09/14 10:25:59;;;;;;;1.30;0.60;;;;;;;;;;21024208;28;20221;-68
2023/09/14 10:36:01;;;;;;;2.03;0.73;;;;;;;;;;20941245;28;20306;-68
2023/09/14 10:46:04;;;;;;;0.93;0.60;;;;;;;;;;20969148;28;20261;-68
2023/09/14 10:56:06;;;;;;;0.82;0.50;;;;;;;;;;20975258;28;20222;-68
2023/09/14 11:06:08;;;;;;;1.50;0.60;;;;;;;;;;21057513;28;20247;-68
2023/09/14 11:16:18;;;;;;;1.17;0.50;;;22.60;99.90;;;;;;21046487;28;20228;-68
2023/09/14 11:26:38;;;;;;;0.88;0.47;;;22.70;99.90;;;;;;21010511;28;20200;-68
2023/09/14 11:36:40;;;;;;;1.02;0.50;;;;;;;;;;21033239;28;20217;-68
2023/09/14 11:46:44;;;;;;;0.63;0.30;;;;;;;;;;21021813;28;20287;-69
2023/09/14 11:56:46;;;;;;;0.73;0.45;;;;;;;;;;21009157;28;20249;-69
2023/09/14 12:06:48;;;;;;;0.95;0.50;;;;;;;;;;21032918;28;20236;-68
2023/09/14 12:16:50;;;;;;;0.88;0.50;;;;;;;;;;21050179;28;20223;-68
2023/09/14 12:26:52;;;;;;;0.68;0.40;;;;;;;;;;21016001;28;20206;-68
2023/09/14 12:36:54;;;;;;;0.98;0.60;;;;;;;;;;21070969;28;20976;-68
2023/09/14 12:46:56;;;;;;;1.00;0.50;;;;;;;;;;20876084;23;20298;-85
2023/09/14 12:56:58;;;;;;;0.75;0.45;;;;;;;;;;20817908;28;20302;-85
2023/09/14 13:06:59;;;;;;;1.02;0.47;;;;;;;;;;20840872;28;20229;-85
2023/09/14 13:17:01;;;;;;;0.85;0.50;;;;;;;;;;20797430;28;20291;-85
2023/09/14 13:27:03;;;;;;;1.40;0.50;;;;;;;;;;20814579;28;20231;-88
2023/09/14 13:37:05;;;;;;;0.60;0.40;;;;;;;;;;20806103;28;20237;-85
2023/09/14 13:47:06;;;;;;;1.85;0.63;;;;;;;;;;20806316;28;20273;-86
2023/09/14 13:57:08;;;;;;;2.30;0.43;;;;;;;;;;20796903;28;20611;-86
2023/09/14 14:07:11;;;;;;;0.75;0.43;;;;;;;;;;20824376;28;20230;-86
2023/09/14 14:17:13;;;;;;;1.17;0.50;;;;;;;;;;20791831;28;20232;-86
2023/09/14 14:27:15;;;;;;;1.10;0.60;;;;;;;;;;20789219;28;20282;-87
2023/09/14 14:37:17;;;;;;;2.65;0.47;;;;;;;;;;20803757;28;20282;-86
2023/09/14 14:47:19;;;;;;;0.50;0.40;;;;;;;;;;20837708;28;20221;-86
2023/09/14 14:57:20;;;;;;;0.80;0.40;;;;;;;;;;20808982;28;20230;-86
2023/09/14 15:07:22;;;;;;;1.48;0.57;;;;;;;;;;20799338;28;20221;-87
2023/09/14 15:17:24;;;;;;;0.98;0.50;;;;;;;;;;20830007;28;20229;-87
2023/09/14 15:27:27;;;;;;;2.30;0.55;;;;;;;;;;20863186;28;20220;-87
2023/09/14 15:37:29;;;;;;;0.80;0.50;;;;;;;;;;20800687;28;20273;-87
2023/09/14 15:47:31;;;;;;;0.82;0.40;;;;;;;;;;20781364;28;20234;-86
2023/09/14 15:57:33;;;;;;;2.78;0.40;;;;;;;;;;20768129;28;20230;-85
2023/09/14 16:07:38;;;;;;;0.60;0.40;;;;;;;;;;20811209;28;20282;-86
2023/09/14 16:17:41;;;;;;;1.48;0.40;;;;;;;;;;20793083;28;20228;-85
2023/09/14 16:27:43;;;;;;;0.88;0.45;;;;;;;;;;20824910;28;20228;-84
2023/09/14 16:37:45;;;;;;;1.52;0.80;;;;;;;;;;20865629;28;20294;-84
2023/09/14 16:47:47;;;;;;;0.75;0.40;;;;;;;;;;20815147;28;20678;-84
2023/09/14 16:57:50;;;;;;;1.05;0.50;;;;;;;;;;20820820;28;20324;-83
2023/09/14 17:07:52;;;;;;;1.08;0.60;;;;;;;;;;20814705;28;20420;-85
2023/09/14 17:17:54;;;;;;;0.85;0.50;;;;;;;;;;20867180;28;20694;-85
2023/09/14 17:27:55;;;;;;;3.80;0.52;;;;;;;;;;20787900;28;20616;-86
2023/09/14 17:37:57;;;;;;;0.80;0.50;;;;;;;;;;20788384;28;20232;-85
2023/09/14 17:47:59;;;;;;;1.92;0.68;;;;;;;;;;20785798;28;20223;-85
2023/09/14 17:58:05;;;;;;;1.23;0.60;;;;;;;;;;20888196;28;20226;-86
2023/09/14 18:08:10;;;;;;;0.88;0.52;;;;;;;;;;20796083;28;20226;-86
2023/09/14 18:18:57;;;;;;;2.22;0.60;;;;;;;;;;20807919;28;20253;-85
2023/09/14 18:29:13;;;;;;;1.52;0.80;;;;;;;;;;20820833;28;20217;-86
2023/09/14 18:39:45;;;;;;;1.10;0.60;;;;;;;;;;20799155;28;20261;-86
2023/09/14 18:50:48;;;;;;;;;;;;;;;;;;;;;
2023/09/14 19:01:33;;;;;;;1.13;0.65;;;;;;;;;;20830268;28;20245;-85
2023/09/14 19:12:04;;;;;;;1.40;0.52;;;;;;;;;;20791860;28;20223;-85
2023/09/14 19:22:39;;;;;;;1.23;0.53;;;;;;;;;;20816120;28;20229;-87
2023/09/14 19:33:12;;;;;;;2.37;0.70;;;;;;;;;;20846746;28;20278;-85
2023/09/14 19:43:18;;;;;;;2.22;0.73;;;;;;;;;;20846292;22;20232;-67
2023/09/14 19:53:21;;;;;;;3.33;0.73;;;;;;;;;;20840661;28;20253;-67
2023/09/14 20:03:23;;;;;;;2.83;0.67;;;;;;;;;;20872786;28;20219;-67
2023/09/14 20:13:25;;;;;;;1.60;0.63;;;;;;;;;;20832210;28;20219;-66
2023/09/14 20:23:28;;;;;;;1.00;0.47;;;;;;;;;;20869315;28;20786;-67
2023/09/14 20:33:31;;;;;;;1.75;0.75;;;;;;;;;;20911084;28;20281;-68
2023/09/14 20:43:33;;;;;;;3.00;0.60;;;;;;;;;;20864127;28;20228;-68
2023/09/14 20:53:35;;;;;;;1.70;0.50;;;;;;;;;;20861118;28;20217;-69
2023/09/14 21:03:37;;;;;;;2.30;0.50;;;;;;;;;;20868260;28;20282;-69
2023/09/14 21:13:39;;;;;;;1.13;0.50;;;;;;;;;;20888252;28;20220;-68
2023/09/14 21:23:41;;;;;;;1.33;0.57;;;;;;;;;;20858506;28;20225;-69
2023/09/14 21:33:43;;;;;;;2.13;0.60;;;;;;;;;;20858355;28;20597;-68
2023/09/14 21:43:45;;;;;;;3.30;0.87;;;;;;;;;;20859499;28;20259;-68
2023/09/14 21:53:47;;;;;;;0.87;0.47;;;;;;;;;;20843111;28;20277;-68
2023/09/14 22:03:49;;;;;;;0.97;0.50;;;;;;;;;;20872476;28;20229;-67
2023/09/14 22:13:51;;;;;;;2.73;0.87;;;;;;;;;;20885781;28;20216;-67
2023/09/14 22:23:52;;;;;;;0.70;0.50;;;;;;;;;;20885380;28;20224;-68
2023/09/14 22:33:54;;;;;;;0.90;0.40;;;;;;;;;;20856121;28;20687;-68
2023/09/14 22:43:56;;;;;;;0.93;0.50;;;;;;;;;;20852670;28;20232;-68
2023/09/14 22:53:59;;;;;;;1.33;0.53;;;;;;;;;;20886218;28;20754;-67
2023/09/14 23:04:00;;;;;;;2.83;1.00;;;;;;;;;;20899024;28;20224;-68
2023/09/14 23:14:02;;;;;;;1.20;0.60;;;;;;;;;;20868984;28;20301;-68
2023/09/14 23:24:05;;;;;;;2.80;0.70;;;19.00;99.90;;;;;;20801315;22;20259;-74
2023/09/14 23:34:10;;;;;;;1.97;0.70;;;;;;;;;;20835768;22;20292;-68
2023/09/14 23:44:14;;;;;;;1.53;0.60;;;19.00;99.90;;;;;;20674356;28;20237;-68
2023/09/14 23:54:19;;;;;;;1.07;0.60;;;;;;;;;;20611478;28;20222;-68
